Crescent City, IL (60928)

3:09 PM CDT en Septiembre 21, 2014 (GMT -0500)
North Watseka | Change Station
CLOSE
Current Station
Estación meteorológica personal
Location: Watseka, IL
Altura: 636 ft
Estaciones meteorológicas cercanas

Alt 636 ft 40.82 °N, 87.75 °W | Updated 2 minutes ago

Parcialmente nublado
Parcialmente nublado
67.2 ° F
Sensación térmica 67.2 ° F
N
11.0
Viento Variable Viento desde ONO

Hoy
Alta -- | Baja -- ° F
--% Posibilidad de precipitaciones
Ayer
Alta -- | Baja -- ° F
Precip. -- pul
6:37 AM 6:50 PM
Creciente menguante, 5% visible
Presión 29.97 pul
Visibilidad 10.0 Millas
Nubes Nubes dispersas 3900 ft
Muy nublado 4600 ft
Muy nublado 6000 ft
Punto de rocío 53 ° F
Humedad 60%
Precipitaciones 0.00 pul
Espesor de la nieve No disponible.
UV 3 de una escala de 12
Polen 5.40 de una escala de 12
Calidad del aire No disponible.
Flu Activity No disponible.
METAR KIKK 211955Z AUTO 32009G15KT 10SM SCT039 BKN046 BKN060 19/11 A2997 RMK AO2 T01850105

More Conditions Fewer Conditions

Presión 29.97 pul
Visibilidad 10.0 Millas
Nubes Nubes dispersas 3900 ft
Muy nublado 4600 ft
Muy nublado 6000 ft
Punto de rocío 53 ° F
Humedad 60%
Precipitaciones 0.00 pul
Espesor de la nieve No disponible.
UV 3 de una escala de 12
Polen 5.40 de una escala de 12
Calidad del aire No disponible.
Flu Activity No disponible.
METAR KIKK 211955Z AUTO 32009G15KT 10SM SCT039 BKN046 BKN060 19/11 A2997 RMK AO2 T01850105

More Conditions Fewer Conditions

10-Day Weather Forecast

Almanac

Astronomía

Sep. 21, 2014 Salida Puesta
Hora real 6:37 AM CDT 6:50 PM CDT
Crepúsculo civil 6:10 AM CDT 7:17 PM CDT
Crepúsculo náutico 5:38 AM CDT 7:49 PM CDT
Crepúsculo astronómico 5:05 AM CDT 8:22 PM CDT
Luna 4:10 AM CDT 5:26 PM CDT
Horas de luz 13h 06m
Horas de luz
12h 12m
Tomorrow will be 2m 41s shorter.
Creciente menguante, 5% of the Moon is Illuminated
Hoy
Creciente menguante
Sep 24
Nueva
Oct 1
Cuarto creciente
Oct 8
Luna llena
Oct 15
Cuarto menguante

Extremos de hoy

Máximos del estado Bajos del estado

Community

WunderPhotos

Upload Photos

1,755,241 ¡fotos cargadas!

Nearby

Grosos de nieve

Estación Profundido Altura
No tenemos constancia de nieve nueva.

Actividad de terremotos

Ciudad Distance Mag. Tiempo y dato
No hay informes recientes de la actividad sísmica.
Magnitud mínima muestra es 2,5.

Temperaturas de aguas costeras

Lugar Temperatura
Sin partes meteorológicos de las estaciones

Estaciones meteorológicas cercanas